Time;durP1;ratioP1;P1;durP2;ratioP2;P2;SDS_P1;SDS_P2;PMS_P1;PMS_P2;Temp;Humidity;BMP_temperature;BMP_pressure;BME280_temperature;BME280_humidity;BME280_pressure;Samples;Min_cycle;Max_cycle;Signal;HPM_P1;HPM_P2
2021/12/24 00:02:02;;;;;;;79.17;34.30;;;;;;;-1.08;85.17;99097.30;1689816;83;97794;-75
2021/12/24 00:04:28;;;;;;;76.97;32.60;;;;;;;-1.07;85.15;99090.69;1689185;83;25879;-76
2021/12/24 00:06:56;;;;;;;75.72;32.13;;;;;;;-1.04;85.20;99081.88;1688158;83;98872;-76
2021/12/24 00:09:25;;;;;;;75.90;32.67;;;;;;;-1.04;85.18;99087.99;1687299;83;25872;-75
2021/12/24 00:11:56;;;;;;;79.58;33.75;;;;;;;-1.01;85.37;99084.44;1686474;83;98037;-75
2021/12/24 00:14:22;;;;;;;77.40;33.13;;;;;;;-1.01;85.31;99076.09;1691695;83;25767;-75
2021/12/24 00:16:54;;;;;;;73.52;32.23;;;;;;;-0.98;85.31;99080.42;1669711;83;25421;-76
2021/12/24 00:35:40;;;;;;;81.35;34.45;;;;;;;-0.92;85.56;99061.88;1686474;83;25889;-75
2021/12/24 00:38:11;;;;;;;73.33;32.50;;;;;;;-0.91;85.65;99053.54;1690480;83;98991;-75
2021/12/24 00:40:44;;;;;;;72.80;32.55;;;;;;;-0.90;85.58;99059.22;1686770;83;25885;-76
2021/12/24 00:43:12;;;;;;;80.10;34.33;;;;;;;-0.88;85.63;99060.91;1688135;83;97899;-76
2021/12/24 00:45:45;;;;;;;70.47;31.05;;;;;;;-0.86;86.13;99063.05;1689399;83;45493;-76
2021/12/24 00:48:16;;;;;;;77.90;32.98;;;;;;;-0.86;85.76;99051.22;1693603;82;98163;-76
2021/12/24 00:51:19;;;;;;;73.55;31.73;;;;;;;-0.84;85.74;99041.98;1691555;83;25397;-76
2021/12/24 00:56:10;;;;;;;84.35;35.52;;;;;;;-0.82;85.78;99040.18;1682342;83;97776;-76
2021/12/24 00:58:41;;;;;;;74.80;32.45;;;;;;;-0.81;85.79;99021.73;1686973;83;27442;-76
2021/12/24 01:01:13;;;;;;;77.50;34.38;;;;;;;-0.80;85.88;99023.91;1685067;83;98553;-77
2021/12/24 01:03:42;;;;;;;77.85;32.85;;;;;;;-0.76;86.01;99028.20;1720531;81;26001;-78
2021/12/24 01:06:08;;;;;;;79.72;35.00;;;;;;;-0.75;86.08;99028.16;1715421;81;97994;-76
2021/12/24 01:08:35;;;;;;;75.60;33.48;;;;;;;-0.71;86.04;99022.38;1720051;81;25913;-79
2021/12/24 01:11:06;;;;;;;80.97;33.45;;;;;;;-0.70;86.05;99028.92;1723427;81;27441;-77
2021/12/24 01:13:32;;;;;;;75.20;32.38;;;;;;;-0.68;86.08;99031.06;1724364;81;97938;-78
2021/12/24 01:16:07;;;;;;;73.28;32.90;;;;;;;-0.66;86.73;99022.69;1725695;81;25310;-78
2021/12/24 01:18:52;;;;;;;73.50;31.85;;;;;;;-0.64;86.20;99022.64;1725175;81;97985;-78
2021/12/24 01:23:57;;;;;;;70.78;29.42;;;;;;;-0.58;86.30;99014.60;1729142;81;98007;-76
2021/12/24 01:26:34;;;;;;;69.17;30.30;;;;;;;-0.55;86.26;99011.03;1724304;81;25360;-78
2021/12/24 01:45:02;;;;;;;66.20;28.00;;;;;;;-0.42;86.64;98993.58;1725249;81;25901;-78
2021/12/24 01:47:30;;;;;;;63.87;27.82;;;;;;;-0.39;86.56;98995.27;1727704;80;25639;-78
2021/12/24 01:49:56;;;;;;;59.67;25.12;;;;;;;-0.39;86.55;98984.29;1723391;81;97913;-78
2021/12/24 01:52:22;;;;;;;72.92;30.97;;;;;;;-0.36;86.58;98986.84;1721882;81;33097;-78
2021/12/24 01:54:52;;;;;;;64.00;28.20;;;;;;;-0.32;86.66;98993.34;1722598;80;98767;-77
2021/12/24 01:57:21;;;;;;;64.97;28.38;;;;;;;-0.31;86.66;98986.73;1720366;81;26350;-80
2021/12/24 01:59:46;;;;;;;62.93;28.92;;;;;;;-0.29;86.65;98981.42;1721264;81;98752;-73
2021/12/24 02:02:12;;;;;;;60.60;29.42;;;;;;;-0.28;86.71;98972.62;1721509;81;27501;-77
2021/12/24 02:04:38;;;;;;;59.60;26.27;;;;;;;-0.24;86.85;98972.95;1727040;81;33189;-78
2021/12/24 02:07:05;;;;;;;54.40;25.90;;;;;;;-0.21;86.92;98970.23;1690392;83;98852;-79
2021/12/24 02:09:34;;;;;;;52.17;26.07;;;;;;;-0.21;87.02;98971.55;1721618;81;25842;-79
2021/12/24 02:12:05;;;;;;;55.75;25.23;;;;;;;-0.21;86.92;98974.19;1720311;80;98886;-80
2021/12/24 02:14:36;;;;;;;50.20;25.00;;;;;;;-0.20;86.92;98974.59;1723399;81;28102;-79
2021/12/24 02:30:40;;;;;;;43.65;23.45;;;;;;;-0.13;87.29;98963.86;1710609;81;98740;-77
2021/12/24 02:33:06;;;;;;;42.03;20.48;;;;;;;-0.10;87.32;98968.17;1714638;80;25917;-78
2021/12/24 02:35:35;;;;;;;42.62;20.70;;;;;;;-0.09;87.31;98963.32;1717636;81;26363;-79
2021/12/24 02:38:04;;;;;;;45.78;21.95;;;;;;;-0.09;87.30;98955.42;1717485;81;98836;-79
2021/12/24 02:40:32;;;;;;;39.88;20.30;;;;;;;-0.09;87.40;98962.87;1722519;81;27461;-78
2021/12/24 02:42:59;;;;;;;43.87;21.23;;;;;;;-0.07;87.42;98958.42;1720527;81;98702;-79
2021/12/24 02:45:30;;;;;;;38.98;19.73;;;;;;;-0.06;87.44;98950.94;1721831;81;26690;-78
2021/12/24 02:56:09;;;;;;;35.95;17.95;;;;;;;-0.02;87.58;98948.63;1722926;81;98641;-76
2021/12/24 02:58:43;;;;;;;36.77;18.48;;;;;;;-0.01;87.62;98942.91;1701230;82;25802;-78
2021/12/24 03:01:13;;;;;;;35.17;18.80;;;;;;;-0.01;87.66;98940.27;1699313;82;99113;-78
2021/12/24 03:03:48;;;;;;;41.17;19.93;;;;;;;-0.01;87.67;98944.22;1697576;82;25909;-78
2021/12/24 03:06:12;;;;;;;35.55;18.32;;;;;;;0.00;87.67;98939.37;1699793;82;98805;-77
2021/12/24 03:08:41;;;;;;;36.45;19.80;;;;;;;0.02;87.70;98944.10;1704783;81;25762;-78
2021/12/24 03:11:07;;;;;;;36.35;18.25;;;;;;;-0.04;87.68;98927.19;1702074;82;25879;-77
2021/12/24 03:13:37;;;;;;;35.00;18.90;;;;;;;0.04;87.74;98942.29;1698209;82;98732;-78
2021/12/24 03:16:04;;;;;;;35.53;18.53;;;;;;;0.03;87.72;98930.48;1699325;82;25749;-77
2021/12/24 03:18:33;;;;;;;36.68;17.75;;;;;;;0.02;87.76;98932.25;1701025;82;98739;-76
2021/12/24 03:21:18;;;;;;;34.18;17.50;;;;;;;-0.01;87.77;98930.60;1698726;82;25824;-78
2021/12/24 03:24:33;;;;;;;36.35;19.77;;;;;;;-0.01;87.81;98920.52;1696976;82;26069;-75
2021/12/24 03:26:14;;;;;;;32.17;17.57;;;;;;;-0.02;87.81;98925.38;1699554;82;98798;-76
2021/12/24 03:28:42;;;;;;;38.05;19.17;;;;;;;-0.04;87.80;98921.92;1698217;82;26566;-76
2021/12/24 03:31:10;;;;;;;33.80;18.95;;;;;;;-0.04;87.88;98929.83;1698510;82;98617;-76
2021/12/24 03:33:40;;;;;;;37.35;18.98;;;;;;;-0.06;87.88;98923.28;1697287;82;26518;-76
2021/12/24 03:36:08;;;;;;;38.73;19.15;;;;;;;-0.05;87.88;98914.92;1697429;82;99193;-75
2021/12/24 03:38:36;;;;;;;35.05;18.95;;;;;;;-0.06;87.90;98914.52;1700001;82;26897;-76
2021/12/24 03:41:04;;;;;;;37.00;19.10;;;;;;;-0.06;87.95;98907.94;1700156;82;25802;-76
2021/12/24 03:43:31;;;;;;;35.68;18.73;;;;;;;-0.05;87.96;98905.26;1696173;82;98735;-74
2021/12/24 03:46:07;;;;;;;38.85;21.07;;;;;;;-0.05;87.96;98924.14;1699097;82;25723;-75
2021/12/24 03:56:34;;;;;;;45.17;21.68;;;;;;;-0.08;88.10;98907.98;1696688;82;98669;-75
2021/12/24 03:59:00;;;;;;;38.28;19.02;;;;;;;-0.09;88.13;98910.20;1698407;82;25849;-75
2021/12/24 04:01:28;;;;;;;40.73;19.98;;;;;;;-0.08;88.16;98925.09;1697347;82;98740;-75
2021/12/24 04:04:00;;;;;;;36.48;19.27;;;;;;;-0.07;88.19;98929.45;1698155;82;25787;-74
2021/12/24 04:06:26;;;;;;;36.03;18.82;;;;;;;-0.05;88.22;98932.05;1699011;82;98917;-76
2021/12/24 04:08:54;;;;;;;38.83;19.05;;;;;;;-0.05;88.20;98925.01;1701967;81;27397;-75
2021/12/24 04:11:23;;;;;;;41.02;19.80;;;;;;;-0.05;88.21;98918.87;1698732;82;26505;-75
2021/12/24 04:13:52;;;;;;;40.17;18.70;;;;;;;-0.06;88.16;98919.78;1697438;82;98529;-74
2021/12/24 04:16:20;;;;;;;40.52;19.70;;;;;;;-0.07;88.20;98922.00;1700833;82;25807;-75
2021/12/24 04:19:03;;;;;;;45.03;22.02;;;;;;;-0.07;88.24;98916.74;1698377;82;98862;-75
2021/12/24 04:26:45;;;;;;;41.92;20.70;;;;;;;-0.08;88.37;98907.98;1676277;84;99166;-75
2021/12/24 04:29:13;;;;;;;40.43;20.80;;;;;;;-0.09;88.37;98915.92;1699344;82;25945;-74
2021/12/24 04:31:47;;;;;;;40.75;19.45;;;;;;;-0.10;88.40;98912.88;1700987;82;98731;-75
2021/12/24 04:34:10;;;;;;;43.50;21.05;;;;;;;-0.10;88.48;98917.69;1699031;82;27480;-75
2021/12/24 04:37:11;;;;;;;44.45;21.25;;;;;;;-0.08;88.53;98907.98;1696628;82;98957;-75
2021/12/24 05:03:35;;;;;;;41.77;20.70;;;;;;;-0.08;88.76;98908.43;1697560;82;25795;-75
2021/12/24 05:06:15;;;;;;;47.62;23.27;;;;;;;-0.07;88.78;98904.89;1698640;82;25815;-73
2021/12/24 05:08:59;;;;;;;40.83;20.23;;;;;;;-0.08;88.78;98900.53;1694899;82;98653;-75
2021/12/24 05:11:13;;;;;;;43.60;19.75;;;;;;;-0.07;88.81;98896.98;1695608;82;25917;-76
2021/12/24 05:13:41;;;;;;;43.48;21.48;;;;;;;-0.06;88.82;98896.08;1697153;82;98848;-75
2021/12/24 05:17:04;;;;;;;52.75;25.27;;;;;;;-0.07;88.78;98889.95;1711884;81;25839;-76
2021/12/24 05:24:06;;;;;;;56.30;25.72;;;;;;;-0.08;88.79;98896.58;1672820;84;25839;-73
2021/12/24 05:26:35;;;;;;;54.63;24.43;;;;;;;-0.10;88.80;98897.94;1701702;82;98719;-75
2021/12/24 05:29:03;;;;;;;49.38;22.15;;;;;;;-0.10;88.80;98893.13;1699039;82;26372;-75
2021/12/24 05:31:34;;;;;;;46.77;21.93;;;;;;;-0.10;88.89;98883.45;1699196;82;98758;-75
2021/12/24 05:34:03;;;;;;;44.75;20.08;;;;;;;-0.09;88.87;98881.23;1698464;82;25849;-75
2021/12/24 05:36:30;;;;;;;51.30;22.93;;;;;;;-0.10;88.91;98869.42;1698901;82;98939;-74
2021/12/24 05:38:57;;;;;;;44.20;22.25;;;;;;;-0.10;88.98;98867.66;1699700;82;28290;-75
2021/12/24 05:41:26;;;;;;;49.53;22.48;;;;;;;-0.08;89.00;98867.61;1698945;82;26629;-74
2021/12/24 05:43:53;;;;;;;48.28;22.95;;;;;;;-0.06;89.00;98865.80;1670734;84;98862;-74
2021/12/24 05:46:21;;;;;;;42.95;20.72;;;;;;;-0.06;89.00;98872.37;1698883;82;26193;-74
2021/12/24 05:48:47;;;;;;;38.05;19.15;;;;;;;-0.07;89.01;98860.13;1697057;82;99035;-74
2021/12/24 05:51:13;;;;;;;36.80;19.10;;;;;;;-0.05;89.07;98847.77;1698299;82;27388;-75
2021/12/24 05:53:41;;;;;;;43.38;20.00;;;;;;;-0.05;89.02;98849.09;1698833;82;33200;-75
2021/12/24 05:56:11;;;;;;;37.08;18.12;;;;;;;-0.06;89.06;98831.11;1698306;82;98600;-74
2021/12/24 05:58:37;;;;;;;37.88;18.52;;;;;;;-0.05;89.02;98844.69;1698502;81;26330;-74
2021/12/24 06:01:04;;;;;;;39.53;18.98;;;;;;;-0.06;89.04;98834.20;1698924;82;98939;-74
2021/12/24 06:03:33;;;;;;;41.45;18.20;;;;;;;-0.07;89.08;98845.64;1697826;82;26845;-75
2021/12/24 06:06:00;;;;;;;37.25;18.52;;;;;;;-0.06;89.08;98842.95;1697245;82;25913;-74
2021/12/24 06:08:29;;;;;;;42.93;19.52;;;;;;;-0.06;89.07;98841.64;1702353;81;98666;-75
2021/12/24 06:10:55;;;;;;;46.20;20.80;;;;;;;-0.05;89.10;98847.77;1701121;82;25866;-73
2021/12/24 06:13:24;;;;;;;40.08;21.33;;;;;;;-0.05;89.13;98857.85;1699488;82;98788;-73
2021/12/24 06:15:52;;;;;;;44.93;20.55;;;;;;;-0.03;89.13;98857.81;1701324;82;26854;-75
2021/12/24 06:18:26;;;;;;;50.10;22.62;;;;;;;-0.04;89.14;98863.98;1699927;81;26416;-76
2021/12/24 06:20:48;;;;;;;46.88;23.15;;;;;;;-0.03;89.15;98857.36;1699725;82;100009;-74
2021/12/24 06:23:17;;;;;;;50.45;23.15;;;;;;;-0.03;89.14;98853.86;1702810;82;26852;-74
2021/12/24 06:25:43;;;;;;;50.35;23.52;;;;;;;-0.03;89.16;98866.57;1692859;82;98837;-76
2021/12/24 06:28:09;;;;;;;46.70;22.02;;;;;;;-0.03;89.21;98875.79;1702826;82;27488;-75
2021/12/24 06:30:37;;;;;;;49.45;23.02;;;;;;;-0.02;89.22;98862.17;1699510;82;98843;-76
2021/12/24 06:33:05;;;;;;;55.60;25.00;;;;;;;-0.02;89.22;98872.25;1699635;82;25843;-77
2021/12/24 06:35:31;;;;;;;54.40;24.02;;;;;;;-0.01;89.23;98877.92;1699101;82;25916;-74
2021/12/24 06:38:01;;;;;;;45.83;20.72;;;;;;;-0.02;89.24;98875.34;1672176;84;98837;-74
2021/12/24 06:40:27;;;;;;;43.52;19.20;;;;;;;0.00;89.25;98885.38;1696578;82;25756;-75
2021/12/24 06:42:53;;;;;;;45.50;20.52;;;;;;;-0.01;89.26;98884.51;1699703;82;98879;-75
2021/12/24 06:45:23;;;;;;;41.88;19.67;;;;;;;0.00;89.29;98877.47;1700409;82;25974;-75
2021/12/24 06:47:51;;;;;;;39.92;18.17;;;;;;;0.01;89.31;98868.62;1698432;82;26506;-75
2021/12/24 06:50:20;;;;;;;39.42;16.93;;;;;;;0.01;89.34;98869.95;1697049;82;98685;-74
2021/12/24 06:52:47;;;;;;;33.02;15.80;;;;;;;0.03;89.36;98873.85;1697397;82;29521;-74
2021/12/24 06:55:13;;;;;;;37.88;17.27;;;;;;;0.04;89.32;98881.71;1702569;81;98733;-74
2021/12/24 06:57:42;;;;;;;42.73;19.00;;;;;;;0.02;89.33;98874.76;1707342;82;25854;-73
2021/12/24 07:00:17;;;;;;;40.88;18.15;;;;;;;0.04;89.40;98881.71;1697902;82;27821;-74
2021/12/24 07:02:45;;;;;;;42.90;19.67;;;;;;;0.05;89.45;98886.07;1694793;81;98545;-73
2021/12/24 07:05:12;;;;;;;49.88;21.55;;;;;;;0.06;89.43;98888.25;1702155;82;28097;-73
2021/12/24 07:07:39;;;;;;;46.60;21.10;;;;;;;0.05;89.44;98883.44;1699285;82;98553;-74
2021/12/24 07:10:07;;;;;;;48.92;21.33;;;;;;;0.06;89.46;98887.80;1698629;82;25916;-74
2021/12/24 07:12:33;;;;;;;49.95;23.15;;;;;;;0.07;89.45;98888.66;1676676;84;26475;-73
2021/12/24 07:15:02;;;;;;;54.15;24.27;;;;;;;0.08;89.48;98888.62;1697407;82;98248;-74
2021/12/24 07:17:31;;;;;;;50.75;23.50;;;;;;;0.09;89.53;98900.02;1698063;82;28012;-74
2021/12/24 07:20:00;;;;;;;82.22;36.15;;;;;;;0.08;89.51;98900.47;1696724;82;98432;-73
2021/12/24 07:22:29;;;;;;;64.30;29.35;;;;;;;0.10;89.54;98896.02;1696683;82;25825;-72
2021/12/24 07:24:57;;;;;;;64.03;29.83;;;;;;;0.10;89.54;98883.30;1696745;82;98786;-73
2021/12/24 07:27:23;;;;;;;59.58;27.60;;;;;;;0.11;89.53;98885.89;1703631;82;25786;-72
2021/12/24 07:29:50;;;;;;;59.35;24.52;;;;;;;0.10;89.56;98886.80;1701138;82;28984;-72
2021/12/24 07:32:18;;;;;;;73.70;28.65;;;;;;;0.11;89.55;98883.71;1703071;82;98567;-72
2021/12/24 07:34:46;;;;;;;64.20;25.12;;;;;;;0.11;89.54;98877.12;1698225;82;25839;-72
2021/12/24 07:37:12;;;;;;;66.45;25.80;;;;;;;0.09;89.57;98874.54;1697319;82;99039;-71
2021/12/24 07:39:40;;;;;;;48.40;20.05;;;;;;;0.10;89.61;98870.13;1697617;83;25810;-72
2021/12/24 07:42:08;;;;;;;82.22;28.25;;;;;;;0.12;89.60;98878.39;1698177;82;25855;-72
2021/12/24 07:44:35;;;;;;;128.75;36.40;;;;;;;0.10;89.59;98870.99;1698302;82;98602;-73
2021/12/24 07:47:06;;;;;;;170.02;42.23;;;;;;;0.10;89.62;98860.45;1697958;82;25581;-71
2021/12/24 07:49:41;;;;;;;197.30;48.38;;;;;;;0.10;89.60;98856.50;1696970;82;98607;-70
2021/12/24 07:54:38;;;;;;;186.97;41.35;;;;;;;0.10;89.60;98853.01;1702468;82;26372;-71
2021/12/24 07:57:09;;;;;;;167.87;40.48;;;;;;;0.11;89.65;98852.10;1668596;84;98531;-71
2021/12/24 07:59:43;;;;;;;149.02;35.92;;;;;;;0.13;89.70;98847.65;1673161;84;25727;-71
2021/12/24 08:02:16;;;;;;;216.05;48.75;;;;;;;0.14;89.68;98850.69;1695028;82;98796;-71
2021/12/24 08:04:49;;;;;;;150.55;36.40;;;;;;;0.12;89.62;98849.87;1701709;82;25788;-71
2021/12/24 08:07:16;;;;;;;162.75;38.38;;;;;;;0.11;89.63;98851.64;1702244;82;99174;-72
2021/12/24 08:09:44;;;;;;;227.57;52.38;;;;;;;0.10;89.61;98856.96;1703970;82;27244;-73
2021/12/24 08:12:12;;;;;;;184.85;44.50;;;;;;;0.10;89.67;98849.92;1698719;82;25801;-71
2021/12/24 08:14:38;;;;;;;242.10;49.58;;;;;;;0.11;89.69;98844.20;1697839;82;98767;-71
2021/12/24 08:17:06;;;;;;;187.50;41.37;;;;;;;0.14;89.72;98853.33;1701917;82;25792;-70
2021/12/24 08:19:37;;;;;;;176.68;37.58;;;;;;;0.15;89.79;98844.06;1696542;82;98882;-71
2021/12/24 08:22:05;;;;;;;151.27;36.35;;;;;;;0.16;89.73;98835.70;1698928;82;27168;-71
2021/12/24 08:24:31;;;;;;;93.90;29.72;;;;;;;0.19;89.81;98839.11;1701525;82;26500;-71
2021/12/24 08:26:58;;;;;;;89.37;28.12;;;;;;;0.20;89.80;98828.11;1700008;82;98564;-70
2021/12/24 08:29:23;;;;;;;74.05;24.87;;;;;;;0.23;89.85;98838.11;1699233;82;25813;-71
2021/12/24 08:31:52;;;;;;;69.45;23.05;;;;;;;0.25;89.85;98842.87;1699356;82;98496;-71
2021/12/24 08:34:20;;;;;;;83.62;28.05;;;;;;;0.28;89.82;98840.60;1704192;82;26110;-71
2021/12/24 08:36:50;;;;;;;116.53;32.53;;;;;;;0.27;89.84;98835.78;1699287;82;98885;-70
2021/12/24 08:39:19;;;;;;;206.10;43.33;;;;;;;0.31;89.85;98834.78;1707657;82;25765;-73
2021/12/24 08:41:46;;;;;;;181.25;40.90;;;;;;;0.33;89.88;98830.78;1666893;84;25933;-72
2021/12/24 08:44:13;;;;;;;105.40;29.42;;;;;;;0.36;89.89;98829.83;1698718;82;98710;-72
2021/12/24 08:46:42;;;;;;;62.60;23.75;;;;;;;0.37;89.90;98829.77;1699052;82;25877;-71
2021/12/24 08:49:11;;;;;;;63.45;25.68;;;;;;;0.42;89.90;98828.31;1697342;82;98757;-70
2021/12/24 08:51:37;;;;;;;71.67;25.88;;;;;;;0.44;89.91;98827.81;1697235;82;25742;-71
2021/12/24 08:54:05;;;;;;;154.70;36.42;;;;;;;0.47;89.86;98823.77;1698794;82;25674;-70
2021/12/24 08:56:31;;;;;;;155.50;39.38;;;;;;;0.48;89.87;98824.17;1698037;82;98842;-70
2021/12/24 08:58:57;;;;;;;69.62;24.92;;;;;;;0.49;89.93;98817.98;1689209;82;27121;-69
2021/12/24 09:01:24;;;;;;;90.92;36.70;;;;;;;0.50;89.95;98814.44;1682887;83;97923;-70
2021/12/24 09:03:50;;;;;;;103.75;39.48;;;;;;;0.47;89.96;98814.53;1708491;82;26711;-70
2021/12/24 09:06:18;;;;;;;74.65;26.27;;;;;;;0.54;89.99;98818.70;1705696;81;25893;-70
2021/12/24 09:08:47;;;;;;;187.35;43.63;;;;;;;0.52;89.95;98815.25;1703964;82;99259;-70
2021/12/24 09:11:14;;;;;;;149.75;36.03;;;;;;;0.55;89.97;98807.24;1684090;83;26667;-69
2021/12/24 09:13:40;;;;;;;112.47;31.62;;;;;;;0.54;89.99;98789.70;1676643;84;98833;-69
2021/12/24 09:16:08;;;;;;;66.90;24.80;;;;;;;0.57;90.04;98782.56;1676501;84;25862;-69
2021/12/24 09:18:36;;;;;;;41.73;18.77;;;;;;;0.63;90.07;98788.09;1676073;84;26125;-70
2021/12/24 09:21:03;;;;;;;36.13;18.25;;;;;;;0.66;90.06;98786.66;1685943;83;98436;-70
2021/12/24 09:23:32;;;;;;;42.25;20.25;;;;;;;0.65;90.02;98788.44;1685353;83;26710;-69
2021/12/24 09:25:58;;;;;;;48.10;25.23;;;;;;;0.67;90.05;98776.98;1683897;83;98533;-69
2021/12/24 09:28:25;;;;;;;39.70;18.82;;;;;;;0.67;89.99;98789.70;1687529;83;25961;-69
2021/12/24 09:30:55;;;;;;;40.83;19.35;;;;;;;0.64;90.00;98787.17;1685007;83;98796;-70
2021/12/24 09:33:21;;;;;;;42.65;18.20;;;;;;;0.63;90.03;98778.41;1684657;83;27484;-70
2021/12/24 09:35:48;;;;;;;43.35;19.17;;;;;;;0.62;89.96;98771.86;1683588;83;25792;-70
2021/12/24 09:38:15;;;;;;;41.35;18.23;;;;;;;0.59;89.97;98772.83;1675538;83;98880;-69
2021/12/24 09:40:43;;;;;;;43.35;19.82;;;;;;;0.58;90.01;98767.14;1675967;83;25902;-69
2021/12/24 09:43:10;;;;;;;46.70;18.12;;;;;;;0.59;90.05;98754.83;1684820;83;98770;-70
2021/12/24 09:45:36;;;;;;;40.98;17.32;;;;;;;0.57;89.99;98756.20;1708505;81;27520;-69
2021/12/24 09:48:02;;;;;;;42.15;19.30;;;;;;;0.56;89.92;98743.92;1709045;82;27204;-69
2021/12/24 09:50:29;;;;;;;42.60;17.95;;;;;;;0.54;89.94;98739.16;1703406;82;98502;-70
2021/12/24 09:52:56;;;;;;;38.30;19.02;;;;;;;0.54;89.99;98740.94;1708898;82;25810;-70
2021/12/24 09:55:26;;;;;;;43.98;19.12;;;;;;;0.53;89.99;98751.08;1707610;81;98695;-70
2021/12/24 09:57:53;;;;;;;39.53;19.57;;;;;;;0.51;89.96;98752.45;1704423;82;27405;-69
2021/12/24 10:00:22;;;;;;;44.80;19.85;;;;;;;0.52;90.00;98748.03;1699346;82;25824;-72
2021/12/24 10:02:53;;;;;;;45.95;21.40;;;;;;;0.50;90.05;98731.41;1708319;82;98545;-70
2021/12/24 10:05:36;;;;;;;43.63;20.23;;;;;;;0.53;90.09;98724.27;1673545;84;26601;-71
2021/12/24 10:08:12;;;;;;;43.75;21.95;;;;;;;0.56;90.11;98720.20;1693168;82;99016;-71
2021/12/24 10:10:44;;;;;;;44.48;21.90;;;;;;;0.61;90.15;98723.55;1699933;82;29568;-70
2021/12/24 10:13:35;;;;;;;45.20;21.62;;;;;;;0.63;90.13;98719.54;1698941;82;98692;-70
2021/12/24 10:16:12;;;;;;;43.60;20.82;;;;;;;0.65;90.17;98717.71;1697987;82;25849;-72
2021/12/24 10:18:57;;;;;;;49.08;21.23;;;;;;;0.67;90.16;98707.98;1698514;82;25731;-68
2021/12/24 10:21:32;;;;;;;48.38;23.02;;;;;;;0.69;90.16;98706.14;1666766;84;98440;-67
2021/12/24 10:24:18;;;;;;;49.18;20.62;;;;;;;0.71;90.17;98699.50;1696414;82;27461;-67
2021/12/24 10:26:52;;;;;;;47.45;21.37;;;;;;;0.74;90.19;98705.53;1696870;83;98607;-70
2021/12/24 10:29:33;;;;;;;99.47;30.95;;;;;;;0.79;90.23;98711.97;1668495;84;26170;-69
2021/12/24 10:32:15;;;;;;;115.72;33.78;;;;;;;0.80;90.21;98719.82;1692517;82;98692;-67
2021/12/24 10:34:44;;;;;;;199.62;47.13;;;;;;;0.80;90.17;98718.50;1698485;82;25602;-69
2021/12/24 10:37:22;;;;;;;209.95;54.38;;;;;;;0.79;90.18;98714.14;1697583;82;99335;-72
2021/12/24 10:40:00;;;;;;;118.35;34.45;;;;;;;0.81;90.23;98701.77;1698867;82;25792;-69
2021/12/24 10:42:36;;;;;;;119.45;36.05;;;;;;;0.80;90.23;98696.09;1697468;82;25862;-69
2021/12/24 10:45:08;;;;;;;92.82;32.08;;;;;;;0.81;90.29;98687.27;1698519;82;98658;-70
2021/12/24 10:47:40;;;;;;;78.92;27.73;;;;;;;0.83;90.33;98673.56;1694701;82;25865;-70
2021/12/24 10:50:37;;;;;;;78.42;27.37;;;;;;;0.88;90.34;98676.90;1696890;82;98618;-72
2021/12/24 10:53:21;;;;;;;58.60;22.40;;;;;;;0.92;90.35;98678.52;1707419;82;25923;-69
2021/12/24 10:55:53;;;;;;;57.70;23.62;;;;;;;0.94;90.33;98687.23;1667197;84;98757;-69
2021/12/24 10:58:23;;;;;;;98.80;31.80;;;;;;;0.93;90.29;98701.80;1701756;82;26429;-69
2021/12/24 11:00:59;;;;;;;99.37;34.18;;;;;;;0.91;90.34;98693.07;1684100;82;25868;-69
2021/12/24 11:03:31;;;;;;;120.50;40.50;;;;;;;0.91;90.37;98693.94;1687895;83;97595;-70
2021/12/24 11:06:13;;;;;;;82.47;31.80;;;;;;;0.94;90.40;98674.05;1720219;81;26140;-69
2021/12/24 11:08:40;;;;;;;74.37;28.60;;;;;;;0.97;90.47;98675.70;1718474;81;98609;-69
2021/12/24 11:11:11;;;;;;;57.17;22.98;;;;;;;1.04;90.51;98688.22;1718816;81;26201;-68
2021/12/24 11:13:44;;;;;;;64.47;25.68;;;;;;;1.05;90.48;98689.48;1718652;80;98797;-69
2021/12/24 11:16:16;;;;;;;64.05;26.87;;;;;;;1.06;90.40;98699.58;1720102;81;28300;-69
2021/12/24 11:18:47;;;;;;;65.05;24.85;;;;;;;1.05;90.40;98697.40;1718093;81;25847;-69
2021/12/24 11:21:24;;;;;;;65.05;28.47;;;;;;;1.07;90.46;98697.34;1721960;81;98555;-69
2021/12/24 11:23:51;;;;;;;76.60;29.55;;;;;;;1.08;90.49;98695.11;1721170;81;27819;-69
2021/12/24 11:26:27;;;;;;;73.52;30.72;;;;;;;1.08;90.51;98689.83;1717338;81;98655;-69
2021/12/24 11:28:56;;;;;;;69.45;27.70;;;;;;;1.11;90.59;98691.04;1720732;81;27000;-69
2021/12/24 11:31:26;;;;;;;69.45;26.30;;;;;;;1.13;90.53;98682.61;1718602;81;98804;-70
2021/12/24 11:33:53;;;;;;;73.00;27.37;;;;;;;1.15;90.54;98683.41;1720466;81;26487;-70
2021/12/24 11:36:25;;;;;;;60.03;24.27;;;;;;;1.15;90.55;98685.59;1718745;81;25850;-69
2021/12/24 11:38:59;;;;;;;68.22;27.17;;;;;;;1.16;90.54;98681.18;1721090;81;98488;-68
2021/12/24 11:41:31;;;;;;;65.40;26.65;;;;;;;1.18;90.60;98681.98;1720091;81;27526;-71
2021/12/24 11:44:06;;;;;;;73.00;26.95;;;;;;;1.18;90.61;98681.52;1723127;81;98503;-70
2021/12/24 11:46:30;;;;;;;74.75;28.77;;;;;;;1.20;90.65;98677.51;1725242;80;25956;-70
2021/12/24 11:48:57;;;;;;;68.78;26.30;;;;;;;1.22;90.67;98677.85;1717550;81;26386;-71
2021/12/24 11:51:31;;;;;;;63.58;25.27;;;;;;;1.23;90.64;98689.27;1723217;81;98277;-71
2021/12/24 11:54:06;;;;;;;106.78;35.95;;;;;;;1.23;90.63;98690.13;1726950;81;26313;-72
2021/12/24 11:56:46;;;;;;;110.32;38.85;;;;;;;1.19;90.54;98688.52;1723466;80;98694;-72
2021/12/24 11:59:15;;;;;;;81.30;30.65;;;;;;;1.21;90.66;98689.78;1718951;81;25908;-70
2021/12/24 12:01:44;;;;;;;80.50;32.03;;;;;;;1.24;90.67;98687.03;1682219;82;98871;-70
2021/12/24 12:04:18;;;;;;;77.22;33.63;;;;;;;1.25;90.69;98694.03;1722504;81;25759;-71
2021/12/24 12:06:44;;;;;;;77.20;31.15;;;;;;;1.26;90.71;98691.80;1723392;81;28064;-71
2021/12/24 12:09:12;;;;;;;72.15;28.23;;;;;;;1.26;90.73;98682.10;1718978;81;98468;-71
2021/12/24 12:11:43;;;;;;;73.83;27.30;;;;;;;1.28;90.78;98687.33;1721120;81;26394;-72
2021/12/24 12:14:24;;;;;;;56.92;22.65;;;;;;;1.31;90.82;98680.61;1718408;81;98565;-72
2021/12/24 12:16:55;;;;;;;56.02;25.35;;;;;;;1.30;90.81;98683.70;1715953;81;25824;-72
2021/12/24 12:25:09;;;;;;;55.00;22.62;;;;;;;1.28;90.90;98689.50;1719067;81;25780;-71
2021/12/24 12:27:49;;;;;;;53.28;20.27;;;;;;;1.27;90.91;98677.22;1723227;81;97440;-70
2021/12/24 12:30:39;;;;;;;42.13;15.23;;;;;;;1.28;91.04;98689.50;1719489;81;25822;-70
2021/12/24 12:33:18;;;;;;;32.93;14.03;;;;;;;1.29;91.01;98674.07;1721785;81;98629;-70
2021/12/24 12:35:59;;;;;;;36.48;13.58;;;;;;;1.30;91.07;98672.29;1717183;81;25737;-72
2021/12/24 12:38:41;;;;;;;31.57;13.75;;;;;;;1.28;91.09;98677.63;1689118;83;98585;-70
2021/12/24 12:41:35;;;;;;;32.90;14.07;;;;;;;1.28;91.11;98682.91;1689146;82;26374;-70
2021/12/24 12:44:08;;;;;;;34.53;12.10;;;;;;;1.29;91.19;98663.52;1727214;81;98605;-69
2021/12/24 12:46:39;;;;;;;34.58;13.05;;;;;;;1.28;91.19;98667.53;1724132;81;27451;-71
2021/12/24 12:49:17;;;;;;;29.90;13.00;;;;;;;1.28;91.27;98664.43;1726880;81;26555;-70
2021/12/24 12:52:11;;;;;;;25.23;11.83;;;;;;;1.27;91.33;98656.57;1725523;81;98375;-70
2021/12/24 12:54:49;;;;;;;30.88;13.30;;;;;;;1.24;91.33;98656.69;1716781;81;25692;-70
2021/12/24 12:57:31;;;;;;;26.33;12.07;;;;;;;1.22;91.38;98652.78;1718626;81;98454;-69
2021/12/24 13:00:21;;;;;;;25.40;11.35;;;;;;;1.19;91.32;98658.63;1730624;80;27523;-69
2021/12/24 13:03:06;;;;;;;25.12;10.05;;;;;;;1.16;91.41;98664.89;1731734;81;97650;-70
2021/12/24 13:05:34;;;;;;;19.07;8.28;;;;;;;1.12;91.34;98680.89;1731806;81;32432;-70
2021/12/24 13:08:22;;;;;;;28.10;10.98;;;;;;;1.07;91.39;98690.75;1731793;81;98608;-69
2021/12/24 13:11:13;;;;;;;18.90;8.38;;;;;;;1.03;91.46;98684.72;1698131;82;25697;-68
2021/12/24 13:13:56;;;;;;;18.95;9.13;;;;;;;1.03;91.50;98679.45;1699885;82;98481;-68
2021/12/24 13:16:46;;;;;;;17.07;7.85;;;;;;;1.00;91.51;98663.73;1700732;82;26529;-68
2021/12/24 13:25:03;;;;;;;21.75;9.00;;;;;;;0.84;91.62;98701.66;1703107;83;26229;-68
2021/12/24 13:27:34;;;;;;;17.20;8.15;;;;;;;0.80;91.60;98688.63;1695453;82;98463;-68
2021/12/24 13:30:11;;;;;;;15.68;7.53;;;;;;;0.77;91.62;98702.79;1703507;82;26050;-68
2021/12/24 13:32:43;;;;;;;15.48;7.22;;;;;;;0.75;91.61;98689.25;1696073;82;98476;-69
2021/12/24 13:35:10;;;;;;;16.85;8.15;;;;;;;0.72;91.63;98687.59;1670378;84;25855;-69